Pilot No. 4 — WDA5463 — position and weather

sailwx.info

Track history (hours):
 
Tides and Currents Weather Stations Pressure Air Temp Water Temp Dewpoint Dewpoint Depression Visibility Wind Speed Wind Dir Waves Ship Positions

Pilot No. 4

Owner: P E P Inc, FORT LAUDERDALE, FL. More information available from US FCC via Universal Licensing System and Coast Guard Vessel Documentation Center.

Last reported at 2016-Jul-29 11:23 UTC. Time now 2016-Jul-29 21:45 UTC.
Position N 26°06' W 080°07'.

MMSI: 495270931.

Date/timePositionNaut miles runAvg speedWind from/ knotsBaromVisibWave heightAir tempDewpointWater temp
2016-Jul-29 11:23N 26°06' W 080°07'0 0.5
2016-Jul-29 10:33N 26°06' W 080°07'0 0.5
2016-Jul-29 09:33N 26°05' W 080°07'0 0.1
2016-Jul-29 08:33N 26°05' W 080°07'1 0.7
2016-Jul-29 07:33N 26°06' W 080°06'1 1.0
2016-Jul-29 06:33N 26°05' W 080°07'0 0.5
2016-Jul-29 05:33N 26°05' W 080°07'0 0.2
2016-Jul-29 04:33N 26°05' W 080°07'0 0.4
2016-Jul-29 03:33N 26°05' W 080°07'1 0.7
2016-Jul-29 02:31N 26°06' W 080°07'1 1.0
2016-Jul-29 01:33N 26°05' W 080°07'1 0.5
2016-Jul-29 00:33N 26°05' W 080°07'2 1.5
2016-Jul-28 23:33N 26°06' W 080°05'2 1.6
2016-Jul-28 22:33N 26°05' W 080°07'1 1.4
2016-Jul-28 21:33N 26°06' W 080°07'1 0.9
2016-Jul-28 20:33N 26°06' W 080°06'1 0.8
2016-Jul-28 19:33N 26°05' W 080°07'1 0.1
2016-Jul-28 13:08N 26°06' W 080°07'1 1.0
2016-Jul-28 12:34N 26°05' W 080°07'  
2016-Jul-25 12:22N 26°06' W 080°07'0 0.0
2016-Jul-23 18:29N 26°06' W 080°07'1 1.2
2016-Jul-23 17:33N 26°05' W 080°07'1 0.3
2016-Jul-23 14:11N 26°06' W 080°07'3 5.4
2016-Jul-23 13:33N 26°06' W 080°04'3 3.1
2016-Jul-23 12:33N 26°06' W 080°07'1 0.0
2016-Jul-22 19:22N 26°06' W 080°07'4 5.0
2016-Jul-22 18:33N 26°07' W 080°03'4 4.0
2016-Jul-22 17:32N 26°06' W 080°07'0 0.2
2016-Jul-22 16:33N 26°06' W 080°07'1 0.7
2016-Jul-22 15:34N 26°05' W 080°07'1 0.7
2016-Jul-22 14:33N 26°06' W 080°07'1 0.8
2016-Jul-22 13:33N 26°06' W 080°07'0 0.4
2016-Jul-22 12:33N 26°06' W 080°06'1 0.6
2016-Jul-22 11:33N 26°05' W 080°07'1 0.5
2016-Jul-22 10:33N 26°06' W 080°07'0 0.1
2016-Jul-22 09:33N 26°06' W 080°07'0 0.4
2016-Jul-22 08:28N 26°06' W 080°07'2 2.0
2016-Jul-22 07:34N 26°04' W 080°07'1 0.4
2016-Jul-22 05:33N 26°05' W 080°07'1 0.8
2016-Jul-22 04:18N 26°06' W 080°07'0 0.2
2016-Jul-22 03:33N 26°06' W 080°07'0 0.2
2016-Jul-22 02:33N 26°06' W 080°07'0 0.3
2016-Jul-22 01:33N 26°06' W 080°07'1 0.8
2016-Jul-22 00:33N 26°06' W 080°06'0 0.1
2016-Jul-21 23:33N 26°06' W 080°06'1 0.5
2016-Jul-21 21:25N 26°06' W 080°07'2 2.5
2016-Jul-21 20:33N 26°06' W 080°05'2 1.9
2016-Jul-21 19:33N 26°05' W 080°07'1 0.1
2016-Jul-21 14:07N 26°06' W 080°07'1 1.9
2016-Jul-21 13:33N 26°05' W 080°07'1 1.1
2016-Jul-21 12:33N 26°06' W 080°07'2 0.9
2016-Jul-21 10:33N 26°04' W 080°07'2 1.7
2016-Jul-21 09:33N 26°06' W 080°06'3 2.9
2016-Jul-21 08:33N 26°06' W 080°02'4 2.2
2016-Jul-21 06:33N 26°05' W 080°07'3 2.7
2016-Jul-21 05:33N 26°05' W 080°04'3 2.7
2016-Jul-21 04:33N 26°06' W 080°07'1 0.3
2016-Jul-21 02:27N 26°06' W 080°07'2 2.7
2016-Jul-21 01:34N 26°05' W 080°05'2 2.0
2016-Jul-21 00:21N 26°06' W 080°07'1 1.0
2016-Jul-20 23:33N 26°05' W 080°07'2 1.5
2016-Jul-20 22:33N 26°06' W 080°05'1 1.3
2016-Jul-20 21:33N 26°06' W 080°07'0 0.3
2016-Jul-20 20:33N 26°05' W 080°07'1 0.1
2016-Jul-20 11:34N 26°06' W 080°07'1 0.6
2016-Jul-20 10:33N 26°05' W 080°07'1 0.5
2016-Jul-20 09:15N 26°06' W 080°07'0 0.0
2016-Jul-20 02:23N 26°06' W 080°07'0 0.4
2016-Jul-20 01:33N 26°06' W 080°07'0 0.1
2016-Jul-19 22:33N 26°05' W 080°07'0 0.4
2016-Jul-19 21:33N 26°05' W 080°07'1 0.5
2016-Jul-19 20:33N 26°06' W 080°07'1 0.2
2016-Jul-19 17:05N 26°06' W 080°07'0 0.0
2016-Jul-19 16:33N 26°06' W 080°07'4 3.9
2016-Jul-19 15:33N 26°05' W 080°03'1 1.1
2016-Jul-19 14:33N 26°05' W 080°04'1 1.3
2016-Jul-19 13:33N 26°06' W 080°05'2 1.5
2016-Jul-19 12:33N 26°06' W 080°07'  
Track history (hours):
 
Tides and Currents Weather Stations Pressure Air Temp Water Temp Dewpoint Dewpoint Depression Visibility Wind Speed Wind Dir Waves Ship Positions

Pilot No. 4

Owner: P E P Inc, FORT LAUDERDALE, FL. More information available from US FCC via Universal Licensing System and Coast Guard Vessel Documentation Center.

Last reported at 2016-Jul-29 11:23 UTC. Time now 2016-Jul-29 21:45 UTC.
Position N 26°06' W 080°07'.

MMSI: 495270931.

Date/timePositionNaut miles runAvg speedWind from/ knotsBaromVisibWave heightAir tempDewpointWater temp
2016-Jul-29 11:23N 26°06' W 080°07'0 0.5
2016-Jul-29 10:33N 26°06' W 080°07'0 0.5
2016-Jul-29 09:33N 26°05' W 080°07'0 0.1
2016-Jul-29 08:33N 26°05' W 080°07'1 0.7
2016-Jul-29 07:33N 26°06' W 080°06'1 1.0
2016-Jul-29 06:33N 26°05' W 080°07'0 0.5
2016-Jul-29 05:33N 26°05' W 080°07'0 0.2
2016-Jul-29 04:33N 26°05' W 080°07'0 0.4
2016-Jul-29 03:33N 26°05' W 080°07'1 0.7
2016-Jul-29 02:31N 26°06' W 080°07'1 1.0
2016-Jul-29 01:33N 26°05' W 080°07'1 0.5
2016-Jul-29 00:33N 26°05' W 080°07'2 1.5
2016-Jul-28 23:33N 26°06' W 080°05'2 1.6
2016-Jul-28 22:33N 26°05' W 080°07'1 1.4
2016-Jul-28 21:33N 26°06' W 080°07'1 0.9
2016-Jul-28 20:33N 26°06' W 080°06'1 0.8
2016-Jul-28 19:33N 26°05' W 080°07'1 0.1
2016-Jul-28 13:08N 26°06' W 080°07'1 1.0
2016-Jul-28 12:34N 26°05' W 080°07'  
2016-Jul-25 12:22N 26°06' W 080°07'0 0.0
2016-Jul-23 18:29N 26°06' W 080°07'1 1.2
2016-Jul-23 17:33N 26°05' W 080°07'1 0.3
2016-Jul-23 14:11N 26°06' W 080°07'3 5.4
2016-Jul-23 13:33N 26°06' W 080°04'3 3.1
2016-Jul-23 12:33N 26°06' W 080°07'1 0.0
2016-Jul-22 19:22N 26°06' W 080°07'4 5.0
2016-Jul-22 18:33N 26°07' W 080°03'4 4.0
2016-Jul-22 17:32N 26°06' W 080°07'0 0.2
2016-Jul-22 16:33N 26°06' W 080°07'1 0.7
2016-Jul-22 15:34N 26°05' W 080°07'1 0.7
2016-Jul-22 14:33N 26°06' W 080°07'1 0.8
2016-Jul-22 13:33N 26°06' W 080°07'0 0.4
2016-Jul-22 12:33N 26°06' W 080°06'1 0.6
2016-Jul-22 11:33N 26°05' W 080°07'1 0.5
2016-Jul-22 10:33N 26°06' W 080°07'0 0.1
2016-Jul-22 09:33N 26°06' W 080°07'0 0.4
2016-Jul-22 08:28N 26°06' W 080°07'2 2.0
2016-Jul-22 07:34N 26°04' W 080°07'1 0.4
2016-Jul-22 05:33N 26°05' W 080°07'1 0.8
2016-Jul-22 04:18N 26°06' W 080°07'0 0.2
2016-Jul-22 03:33N 26°06' W 080°07'0 0.2
2016-Jul-22 02:33N 26°06' W 080°07'0 0.3
2016-Jul-22 01:33N 26°06' W 080°07'1 0.8
2016-Jul-22 00:33N 26°06' W 080°06'0 0.1
2016-Jul-21 23:33N 26°06' W 080°06'1 0.5
2016-Jul-21 21:25N 26°06' W 080°07'2 2.5
2016-Jul-21 20:33N 26°06' W 080°05'2 1.9
2016-Jul-21 19:33N 26°05' W 080°07'1 0.1
2016-Jul-21 14:07N 26°06' W 080°07'1 1.9
2016-Jul-21 13:33N 26°05' W 080°07'1 1.1
2016-Jul-21 12:33N 26°06' W 080°07'2 0.9
2016-Jul-21 10:33N 26°04' W 080°07'2 1.7
2016-Jul-21 09:33N 26°06' W 080°06'3 2.9
2016-Jul-21 08:33N 26°06' W 080°02'4 2.2
2016-Jul-21 06:33N 26°05' W 080°07'3 2.7
2016-Jul-21 05:33N 26°05' W 080°04'3 2.7
2016-Jul-21 04:33N 26°06' W 080°07'1 0.3
2016-Jul-21 02:27N 26°06' W 080°07'2 2.7
2016-Jul-21 01:34N 26°05' W 080°05'2 2.0
2016-Jul-21 00:21N 26°06' W 080°07'1 1.0
2016-Jul-20 23:33N 26°05' W 080°07'2 1.5
2016-Jul-20 22:33N 26°06' W 080°05'1 1.3
2016-Jul-20 21:33N 26°06' W 080°07'0 0.3
2016-Jul-20 20:33N 26°05' W 080°07'1 0.1
2016-Jul-20 11:34N 26°06' W 080°07'1 0.6
2016-Jul-20 10:33N 26°05' W 080°07'1 0.5
2016-Jul-20 09:15N 26°06' W 080°07'0 0.0
2016-Jul-20 02:23N 26°06' W 080°07'0 0.4
2016-Jul-20 01:33N 26°06' W 080°07'0 0.1
2016-Jul-19 22:33N 26°05' W 080°07'0 0.4
2016-Jul-19 21:33N 26°05' W 080°07'1 0.5
2016-Jul-19 20:33N 26°06' W 080°07'1 0.2
2016-Jul-19 17:05N 26°06' W 080°07'0 0.0
2016-Jul-19 16:33N 26°06' W 080°07'4 3.9
2016-Jul-19 15:33N 26°05' W 080°03'1 1.1
2016-Jul-19 14:33N 26°05' W 080°04'1 1.3
2016-Jul-19 13:33N 26°06' W 080°05'2 1.5
2016-Jul-19 12:33N 26°06' W 080°07'  

Dump ship's entire track history